createdAt,value
2018-03-01T00:00:52.648Z,6.15
2018-03-01T00:03:20.792Z,5.87
2018-03-01T00:05:48.712Z,6.10
2018-03-01T00:08:16.625Z,6.82
2018-03-01T00:10:44.544Z,6.60
2018-03-01T00:13:12.437Z,6.85
2018-03-01T00:15:40.359Z,6.85
2018-03-01T00:18:08.248Z,7.62
2018-03-01T00:20:36.153Z,6.15
2018-03-01T00:23:04.066Z,6.30
2018-03-01T00:25:32.101Z,6.32
2018-03-01T00:28:06.836Z,6.18
2018-03-01T00:30:34.753Z,5.90
2018-03-01T00:33:02.660Z,6.82
2018-03-01T00:35:30.576Z,5.20
2018-03-01T00:37:58.473Z,6.90
2018-03-01T00:40:26.380Z,6.18
2018-03-01T00:42:54.595Z,5.60
2018-03-01T00:45:22.508Z,6.25
2018-03-01T00:47:50.412Z,6.12
2018-03-01T00:50:33.283Z,6.50
2018-03-01T00:53:01.203Z,6.35
2018-03-01T00:55:29.117Z,5.28
2018-03-01T00:57:57.024Z,5.60
2018-03-01T01:00:24.993Z,5.90
2018-03-01T01:02:52.897Z,6.30
2018-03-01T01:05:20.794Z,6.57
2018-03-01T01:07:48.714Z,6.15
2018-03-01T01:10:16.612Z,5.75
2018-03-01T01:12:44.523Z,7.35
2018-03-01T01:15:12.427Z,6.90
2018-03-01T01:17:40.336Z,5.90
2018-03-01T01:20:08.253Z,7.03
2018-03-01T01:22:36.384Z,5.50
2018-03-01T01:25:04.280Z,5.68
2018-03-01T01:27:32.195Z,6.50
2018-03-01T01:30:00.110Z,5.60
2018-03-01T01:32:28.005Z,5.50
2018-03-01T01:34:55.925Z,5.45
2018-03-01T01:37:23.827Z,6.85
2018-03-01T01:39:51.728Z,5.80
2018-03-01T01:42:19.628Z,6.25
2018-03-01T01:44:47.535Z,5.68
2018-03-01T01:47:15.424Z,5.35
2018-03-01T01:49:43.424Z,5.95
2018-03-01T01:52:11.330Z,6.20
2018-03-01T01:54:39.597Z,5.82
2018-03-01T01:57:07.492Z,5.93
2018-03-01T01:59:35.458Z,6.90
2018-03-01T02:02:03.329Z,6.62
2018-03-01T02:04:38.256Z,5.43
2018-03-01T02:07:06.158Z,5.90
2018-03-01T02:09:34.052Z,5.12
2018-03-01T02:12:01.949Z,5.85
2018-03-01T02:14:36.832Z,4.82
2018-03-01T02:17:04.736Z,5.72
2018-03-01T02:19:32.635Z,6.30
2018-03-01T02:22:00.840Z,6.00
2018-03-01T02:24:28.736Z,6.03
2018-03-01T02:26:56.640Z,5.47
2018-03-01T02:29:24.545Z,5.28
2018-03-01T02:31:52.442Z,4.37
2018-03-01T02:34:20.349Z,5.70
2018-03-01T02:36:48.266Z,5.35
2018-03-01T02:39:16.173Z,5.55
2018-03-01T02:41:44.097Z,5.95
2018-03-01T02:44:11.996Z,6.10
2018-03-01T02:46:39.897Z,4.97
2018-03-01T02:49:07.796Z,6.30
2018-03-01T02:51:35.688Z,6.80
2018-03-01T02:54:03.641Z,6.20
2018-03-01T02:56:31.557Z,4.80
2018-03-01T02:58:59.449Z,5.40
2018-03-01T03:01:27.357Z,7.18
2018-03-01T03:03:55.240Z,5.40
2018-03-01T03:06:23.124Z,6.03
2018-03-01T03:08:51.013Z,5.07
2018-03-01T03:11:18.908Z,5.57
2018-03-01T03:13:46.801Z,5.65
2018-03-01T03:16:14.698Z,5.93
2018-03-01T03:18:49.527Z,5.28
2018-03-01T03:21:17.449Z,4.37
2018-03-01T03:23:48.364Z,4.75
2018-03-01T03:26:16.260Z,5.00
2018-03-01T03:28:44.159Z,4.50
2018-03-01T03:31:12.109Z,6.53
2018-03-01T03:33:40.001Z,3.75
2018-03-01T03:36:07.896Z,4.90
2018-03-01T03:38:35.800Z,5.55
2018-03-01T03:41:03.712Z,5.37
2018-03-01T03:43:31.618Z,6.03
2018-03-01T03:45:59.518Z,4.20
2018-03-01T03:48:27.416Z,5.00
2018-03-01T03:50:55.309Z,5.35
2018-03-01T03:53:23.209Z,5.55
2018-03-01T03:55:51.101Z,4.37
2018-03-01T03:58:18.995Z,5.07
2018-03-01T04:00:46.886Z,5.62
2018-03-01T04:03:14.772Z,3.92
2018-03-01T04:05:42.660Z,4.60
2018-03-01T04:08:10.637Z,4.00
2018-03-01T04:10:38.529Z,4.62
2018-03-01T04:13:06.420Z,5.37
2018-03-01T04:15:34.341Z,4.30
2018-03-01T04:18:02.229Z,4.40
2018-03-01T04:20:30.117Z,4.20
2018-03-01T04:22:58.013Z,3.92
2018-03-01T04:25:25.954Z,5.18
2018-03-01T04:27:53.847Z,3.90
2018-03-01T04:30:21.758Z,5.03
2018-03-01T04:32:49.644Z,4.43
2018-03-01T04:35:17.533Z,5.07
2018-03-01T04:37:45.435Z,4.22
2018-03-01T04:40:13.338Z,4.30
2018-03-01T04:42:41.246Z,4.50
2018-03-01T04:45:09.152Z,3.67
2018-03-01T04:47:37.049Z,4.40
2018-03-01T04:50:04.956Z,3.97
2018-03-01T04:52:33.212Z,3.97
2018-03-01T04:55:01.104Z,3.65
2018-03-01T04:57:29.001Z,3.87
2018-03-01T04:59:56.911Z,3.40
2018-03-01T05:02:24.820Z,3.35
2018-03-01T05:04:52.705Z,3.83
2018-03-01T05:07:20.597Z,3.42
2018-03-01T05:09:48.502Z,3.62
2018-03-01T05:12:16.417Z,3.65
2018-03-01T05:14:44.316Z,3.10
2018-03-01T05:17:12.209Z,3.60
2018-03-01T05:19:40.512Z,3.65
2018-03-01T05:22:08.416Z,4.03
2018-03-01T05:24:36.301Z,3.65
2018-03-01T05:27:04.188Z,3.53
2018-03-01T05:29:32.080Z,4.68
2018-03-01T05:31:59.980Z,3.12
2018-03-01T05:34:27.870Z,3.30
2018-03-01T05:36:56.039Z,3.10
2018-03-01T05:39:23.932Z,4.03
2018-03-01T05:41:51.832Z,2.85
2018-03-01T05:44:19.723Z,3.65
2018-03-01T05:46:47.624Z,2.70
2018-03-01T05:49:15.516Z,2.67
2018-03-01T05:51:43.400Z,3.65
2018-03-01T05:54:11.293Z,3.22
2018-03-01T05:56:39.189Z,3.33
2018-03-01T05:59:07.092Z,3.10
2018-03-01T06:01:35.328Z,2.45
2018-03-01T06:04:03.224Z,3.33
2018-03-01T06:06:31.124Z,2.85
2018-03-01T06:08:59.032Z,2.70
2018-03-01T06:11:26.931Z,3.90
2018-03-01T06:13:54.828Z,3.17
2018-03-01T06:16:22.725Z,4.00
2018-03-01T06:18:50.617Z,4.45
2018-03-01T06:21:18.504Z,3.25
2018-03-01T06:23:46.406Z,3.47
2018-03-01T06:26:14.296Z,2.92
2018-03-01T06:28:42.193Z,3.62
2018-03-01T06:31:10.445Z,3.58
2018-03-01T06:33:38.336Z,4.10
2018-03-01T06:36:06.237Z,3.85
2018-03-01T06:38:34.125Z,4.20
2018-03-01T06:41:02.045Z,4.20
2018-03-01T06:43:29.960Z,5.15
2018-03-01T06:45:57.844Z,4.93
2018-03-01T06:48:25.748Z,5.00
2018-03-01T06:50:53.660Z,5.12
2018-03-01T06:53:21.585Z,4.75
2018-03-01T06:55:49.728Z,4.78
2018-03-01T06:58:17.630Z,3.60
2018-03-01T07:00:45.517Z,3.90
2018-03-01T07:03:13.420Z,5.00
2018-03-01T07:05:41.321Z,4.40
2018-03-01T07:08:09.214Z,4.80
2018-03-01T07:10:37.105Z,4.90
2018-03-01T07:13:04.993Z,4.80
2018-03-01T07:15:32.916Z,4.47
2018-03-01T07:18:00.816Z,4.43
2018-03-01T07:20:29.025Z,3.75
2018-03-01T07:22:56.927Z,3.67
2018-03-01T07:25:24.822Z,5.50
2018-03-01T07:27:52.767Z,4.53
2018-03-01T07:30:20.661Z,4.60
2018-03-01T07:32:48.572Z,5.25
2018-03-01T07:35:16.466Z,4.47
2018-03-01T07:37:44.408Z,5.05
2018-03-01T07:40:12.317Z,3.72
2018-03-01T07:42:40.205Z,4.90
2018-03-01T07:45:08.117Z,4.87
2018-03-01T07:47:36.016Z,4.00
2018-03-01T07:50:03.913Z,4.45
2018-03-01T07:52:31.817Z,3.90
2018-03-01T07:54:59.691Z,4.90
2018-03-01T07:57:27.598Z,4.43
2018-03-01T07:59:55.521Z,4.00
2018-03-01T08:02:23.416Z,4.30
2018-03-01T08:04:51.316Z,4.50
2018-03-01T08:07:19.205Z,4.95
2018-03-01T08:09:47.464Z,5.20
2018-03-01T08:12:15.362Z,4.85
2018-03-01T08:14:43.269Z,4.90
2018-03-01T08:17:18.166Z,4.53
2018-03-01T08:19:46.056Z,5.20
2018-03-01T08:22:13.961Z,4.87
2018-03-01T08:24:41.850Z,4.68
2018-03-01T08:27:09.756Z,4.05
2018-03-01T08:29:37.649Z,3.70
2018-03-01T08:32:05.545Z,4.90
2018-03-01T08:34:33.452Z,4.95
2018-03-01T08:37:01.350Z,5.37
2018-03-01T08:39:29.252Z,4.57
2018-03-01T08:41:57.149Z,4.37
2018-03-01T08:44:25.049Z,4.60
2018-03-01T08:46:54.213Z,3.72
2018-03-01T08:49:22.125Z,5.15
2018-03-01T08:51:50.098Z,4.82
2018-03-01T08:54:17.998Z,5.55
2018-03-01T08:56:45.900Z,5.35
2018-03-01T08:59:13.797Z,5.20
2018-03-01T09:01:41.698Z,3.85
2018-03-01T09:04:09.601Z,4.62
2018-03-01T09:06:37.508Z,4.62
2018-03-01T09:09:05.413Z,4.80
2018-03-01T09:11:33.312Z,4.60
2018-03-01T09:14:01.225Z,4.70
2018-03-01T09:16:29.121Z,3.50
2018-03-01T09:18:57.028Z,4.12
2018-03-01T09:21:24.920Z,5.93
2018-03-01T09:23:52.804Z,5.18
2018-03-01T09:26:21.041Z,4.43
2018-03-01T09:28:48.932Z,5.05
2018-03-01T09:31:16.825Z,4.20
2018-03-01T09:33:44.726Z,3.97
2018-03-01T09:36:12.633Z,4.35
2018-03-01T09:38:40.546Z,4.90
2018-03-01T09:41:08.445Z,3.65
2018-03-01T09:43:36.329Z,5.37
2018-03-01T09:46:04.265Z,3.90
2018-03-01T09:48:32.165Z,3.75
2018-03-01T09:51:00.065Z,5.28
2018-03-01T09:53:27.969Z,3.30
2018-03-01T09:55:56.100Z,4.37
2018-03-01T09:58:24.012Z,4.12
2018-03-01T10:00:51.901Z,5.40
2018-03-01T10:03:19.794Z,4.07
2018-03-01T10:05:47.698Z,5.37
2018-03-01T10:08:15.593Z,4.40
2018-03-01T10:10:43.488Z,4.35
2018-03-01T10:13:11.388Z,4.12
2018-03-01T10:15:39.297Z,4.72
2018-03-01T10:18:07.180Z,4.82
2018-03-01T10:20:35.069Z,3.75
2018-03-01T10:23:03.337Z,4.50
2018-03-01T10:25:31.228Z,4.45
2018-03-01T10:27:59.125Z,4.97
2018-03-01T10:30:27.013Z,4.22
2018-03-01T10:32:54.909Z,4.93
2018-03-01T10:35:22.809Z,3.72
2018-03-01T10:37:50.706Z,3.53
2018-03-01T10:40:18.604Z,4.00
2018-03-01T10:42:46.493Z,4.70
2018-03-01T10:45:14.388Z,4.60
2018-03-01T10:47:42.278Z,3.60
2018-03-01T10:50:10.201Z,3.85
2018-03-01T10:52:38.097Z,4.40
2018-03-01T10:55:06.437Z,5.03
2018-03-01T10:57:34.324Z,4.37
2018-03-01T11:00:02.253Z,3.97
2018-03-01T11:02:30.188Z,4.03
2018-03-01T11:04:58.092Z,4.45
2018-03-01T11:07:25.984Z,4.28
2018-03-01T11:09:53.897Z,4.12
2018-03-01T11:12:21.812Z,4.05
2018-03-01T11:14:49.717Z,4.87
2018-03-01T11:17:17.621Z,4.50
2018-03-01T11:19:45.541Z,3.85
2018-03-01T11:22:13.460Z,4.35
2018-03-01T11:24:41.352Z,4.03
2018-03-01T11:27:09.517Z,4.65
2018-03-01T11:29:44.353Z,3.75
2018-03-01T11:32:12.241Z,3.75
2018-03-01T11:34:40.141Z,4.45
2018-03-01T11:37:08.025Z,4.65
2018-03-01T11:39:35.917Z,3.87
2018-03-01T11:42:10.721Z,4.45
2018-03-01T11:44:38.633Z,4.70
2018-03-01T11:47:06.528Z,3.50
2018-03-01T11:49:34.412Z,4.00
2018-03-01T11:52:02.304Z,4.32
2018-03-01T11:54:30.207Z,4.37
2018-03-01T11:56:58.345Z,4.03
2018-03-01T11:59:26.241Z,4.75
2018-03-01T12:01:54.137Z,3.60
2018-03-01T12:04:22.037Z,3.80
2018-03-01T12:06:49.925Z,4.12
2018-03-01T12:09:17.822Z,4.43
2018-03-01T12:11:45.715Z,5.30
2018-03-01T12:14:13.609Z,3.90
2018-03-01T12:16:41.498Z,3.95
2018-03-01T12:19:09.405Z,4.75
2018-03-01T12:21:37.544Z,3.75
2018-03-01T12:24:05.456Z,4.25
2018-03-01T12:26:33.356Z,3.97
2018-03-01T12:29:01.266Z,4.03
2018-03-01T12:31:29.185Z,4.25
2018-03-01T12:33:57.901Z,3.05
2018-03-01T12:36:25.812Z,4.12
2018-03-01T12:38:53.713Z,3.78
2018-03-01T12:41:21.601Z,3.35
2018-03-01T12:43:49.510Z,3.50
2018-03-01T12:46:17.389Z,3.28
2018-03-01T12:48:45.272Z,3.45
2018-03-01T12:51:13.742Z,4.95
2018-03-01T12:53:41.645Z,3.60
2018-03-01T12:56:09.549Z,5.00
2018-03-01T12:58:37.460Z,3.83
2018-03-01T13:01:05.364Z,4.07
2018-03-01T13:03:33.264Z,6.57
2018-03-01T13:06:01.175Z,5.30
2018-03-01T13:08:29.085Z,4.75
2018-03-01T13:10:57.005Z,4.97
2018-03-01T13:13:24.930Z,4.35
2018-03-01T13:15:52.836Z,5.30
2018-03-01T13:18:20.743Z,4.90
2018-03-01T13:20:48.691Z,3.72
2018-03-01T13:23:16.589Z,4.37
2018-03-01T13:25:44.497Z,4.25
2018-03-01T13:28:12.407Z,3.50
2018-03-01T13:30:40.314Z,4.30
2018-03-01T13:36:31.017Z,2.50
2018-03-01T13:38:59.505Z,3.33
2018-03-01T13:41:27.429Z,4.75
2018-03-01T13:43:55.345Z,4.07
2018-03-01T13:46:23.260Z,4.85
2018-03-01T13:48:51.176Z,4.62
2018-03-01T13:51:19.092Z,3.28
2018-03-01T13:53:47.013Z,4.80
2018-03-01T13:56:15.264Z,4.45
2018-03-01T13:58:43.204Z,3.60
2018-03-01T14:01:11.120Z,3.47
2018-03-01T14:03:39.042Z,2.47
2018-03-01T14:06:20.008Z,3.30
2018-03-01T14:08:47.956Z,2.78
2018-03-01T14:11:15.872Z,1.85
2018-03-01T14:13:43.847Z,2.85
2018-03-01T14:16:11.704Z,2.25
2018-03-01T14:18:54.581Z,2.20
2018-03-01T14:21:25.256Z,2.40
2018-03-01T14:24:10.110Z,2.33
2018-03-01T14:26:45.848Z,2.30
2018-03-01T14:29:28.724Z,2.80
2018-03-01T14:31:56.628Z,3.03
2018-03-01T14:34:24.526Z,2.00
2018-03-01T14:36:52.432Z,1.77
2018-03-01T14:39:20.315Z,2.80
2018-03-01T14:41:48.213Z,2.65
2018-03-01T14:44:16.103Z,2.70
2018-03-01T14:46:44.000Z,2.60
2018-03-01T14:49:11.917Z,2.05
2018-03-01T14:51:39.811Z,2.53
2018-03-01T14:54:07.700Z,2.33
2018-03-01T14:56:35.592Z,2.17
2018-03-01T14:59:03.485Z,1.83
2018-03-01T15:01:31.377Z,2.05
2018-03-01T15:03:59.448Z,1.95
2018-03-01T15:06:27.361Z,1.70
2018-03-01T15:08:55.270Z,1.90
2018-03-01T15:11:23.173Z,2.53
2018-03-01T15:13:51.099Z,2.17
2018-03-01T15:16:19.028Z,2.05
2018-03-01T15:18:46.952Z,2.28
2018-03-01T15:21:14.923Z,3.00
2018-03-01T15:23:42.842Z,1.92
2018-03-01T15:26:10.838Z,2.75
2018-03-01T15:28:38.752Z,2.92
2018-03-01T15:31:06.689Z,2.95
2018-03-01T15:33:34.601Z,2.60
2018-03-01T15:36:02.512Z,2.40
2018-03-01T15:38:30.421Z,2.50
2018-03-01T15:40:58.331Z,3.20
2018-03-01T15:43:26.232Z,2.22
2018-03-01T15:45:54.149Z,3.67
2018-03-01T15:48:22.044Z,2.30
2018-03-01T15:50:49.957Z,2.10
2018-03-01T15:53:17.875Z,2.70
2018-03-01T15:55:45.816Z,3.53
2018-03-01T15:58:13.717Z,2.28
2018-03-01T16:00:41.889Z,2.35
2018-03-01T16:03:09.833Z,2.10
2018-03-01T16:05:37.786Z,3.00
2018-03-01T16:08:05.709Z,2.85
2018-03-01T16:10:33.632Z,2.50
2018-03-01T16:13:01.541Z,2.83
2018-03-01T16:15:29.441Z,2.45
2018-03-01T16:17:57.381Z,2.30
2018-03-01T16:20:25.573Z,2.45
2018-03-01T16:22:53.488Z,3.05
2018-03-01T16:25:21.385Z,2.58
2018-03-01T16:27:49.362Z,2.97
2018-03-01T16:30:17.257Z,3.03
2018-03-01T16:32:45.181Z,2.47
2018-03-01T16:35:13.087Z,1.92
2018-03-01T16:37:41.468Z,2.90
2018-03-01T16:40:09.386Z,2.65
2018-03-01T16:42:37.308Z,2.50
2018-03-01T16:45:05.216Z,2.33
2018-03-01T16:47:33.135Z,2.30
2018-03-01T16:50:01.040Z,3.90
2018-03-01T16:52:28.954Z,2.40
2018-03-01T16:54:56.852Z,2.80
2018-03-01T16:57:24.825Z,2.70
2018-03-01T16:59:52.743Z,2.45
2018-03-01T17:02:20.645Z,3.20
2018-03-01T17:04:48.572Z,3.37
2018-03-01T17:07:16.484Z,2.50
2018-03-01T17:09:44.401Z,2.62
2018-03-01T17:12:12.297Z,3.25
2018-03-01T17:14:40.201Z,3.12
2018-03-01T17:17:08.126Z,3.05
2018-03-01T17:19:36.062Z,2.72
2018-03-01T17:22:10.850Z,3.28
2018-03-01T17:24:38.751Z,3.08
2018-03-01T17:27:06.662Z,2.72
2018-03-01T17:29:34.708Z,2.67
2018-03-01T17:32:02.626Z,3.37
2018-03-01T17:34:30.528Z,2.47
2018-03-01T17:36:58.441Z,3.03
2018-03-01T17:39:26.361Z,2.55
2018-03-01T17:41:54.260Z,2.42
2018-03-01T17:44:22.149Z,3.28
2018-03-01T17:46:50.053Z,2.42
2018-03-01T17:49:17.964Z,3.15
2018-03-01T17:51:46.185Z,3.42
2018-03-01T17:54:14.116Z,3.78
2018-03-01T17:56:42.013Z,2.42
2018-03-01T17:59:09.924Z,3.15
2018-03-01T18:01:37.841Z,3.10
2018-03-01T18:04:05.770Z,3.10
2018-03-01T18:06:33.677Z,2.92
2018-03-01T18:09:01.605Z,2.95
2018-03-01T18:11:29.533Z,2.90
2018-03-01T18:14:04.449Z,3.85
2018-03-01T18:16:32.376Z,3.22
2018-03-01T18:19:00.278Z,3.03
2018-03-01T18:21:28.213Z,3.28
2018-03-01T18:23:56.121Z,2.87
2018-03-01T18:26:24.014Z,3.28
2018-03-01T18:28:51.970Z,2.97
2018-03-01T18:31:19.888Z,2.28
2018-03-01T18:33:47.829Z,2.80
2018-03-01T18:36:15.744Z,3.00
2018-03-01T18:38:43.649Z,2.83
2018-03-01T18:41:11.560Z,2.85
2018-03-01T18:43:39.465Z,2.92
2018-03-01T18:46:07.360Z,2.60
2018-03-01T18:48:35.309Z,2.53
2018-03-01T18:51:03.263Z,2.25
2018-03-01T18:53:31.197Z,3.10
2018-03-01T18:55:59.121Z,3.30
2018-03-01T18:58:27.040Z,3.05
2018-03-01T19:00:54.948Z,2.95
2018-03-01T19:03:22.881Z,2.70
2018-03-01T19:05:50.876Z,3.03
2018-03-01T19:08:18.798Z,3.20
2018-03-01T19:10:46.743Z,4.00
2018-03-01T19:13:14.693Z,2.58
2018-03-01T19:15:42.624Z,3.15
2018-03-01T19:18:10.520Z,3.50
2018-03-01T19:20:38.420Z,4.70
2018-03-01T19:23:06.338Z,3.85
2018-03-01T19:25:34.252Z,2.72
2018-03-01T19:28:02.632Z,2.92
2018-03-01T19:30:30.592Z,3.55
2018-03-01T19:32:58.542Z,3.12
2018-03-01T19:35:26.461Z,2.90
2018-03-01T19:37:54.378Z,3.33
2018-03-01T19:40:22.299Z,2.65
2018-03-01T19:42:50.220Z,4.00
2018-03-01T19:45:18.134Z,3.70
2018-03-01T19:47:46.060Z,4.57
2018-03-01T19:50:13.962Z,4.47
2018-03-01T19:52:41.885Z,3.75
2018-03-01T19:55:10.196Z,3.87
2018-03-01T19:57:38.109Z,3.20
2018-03-01T20:00:06.018Z,3.72
2018-03-01T20:02:33.921Z,3.70
2018-03-01T20:05:01.830Z,2.90
2018-03-01T20:07:29.744Z,3.25
2018-03-01T20:09:57.680Z,2.92
2018-03-01T20:12:25.593Z,2.62
2018-03-01T20:14:53.503Z,3.30
2018-03-01T20:17:21.396Z,3.17
2018-03-01T20:19:49.320Z,3.15
2018-03-01T20:22:17.229Z,2.65
2018-03-01T20:24:45.645Z,4.05
2018-03-01T20:27:13.841Z,3.80
2018-03-01T20:29:41.740Z,3.37
2018-03-01T20:32:09.649Z,3.25
2018-03-01T20:34:37.558Z,3.33
2018-03-01T20:37:05.468Z,4.35
2018-03-01T20:39:33.390Z,4.60
2018-03-01T20:42:01.304Z,3.72
2018-03-01T20:44:29.214Z,3.17
2018-03-01T20:46:57.152Z,2.80
2018-03-01T20:49:25.058Z,3.60
2018-03-01T20:51:52.983Z,3.28
2018-03-01T20:54:20.906Z,3.28
2018-03-01T20:56:49.097Z,2.95
2018-03-01T20:59:17.004Z,3.85
2018-03-01T21:01:44.961Z,3.30
2018-03-01T21:04:12.872Z,3.35
2018-03-01T21:06:40.789Z,3.30
2018-03-01T21:09:08.680Z,2.80
2018-03-01T21:11:36.588Z,2.95
2018-03-01T21:14:04.497Z,3.78
2018-03-01T21:16:32.405Z,2.85
2018-03-01T21:19:00.508Z,2.90
2018-03-01T21:21:28.404Z,2.78
2018-03-01T21:23:56.288Z,3.45
2018-03-01T21:26:24.201Z,3.08
2018-03-01T21:28:52.121Z,3.67
2018-03-01T21:31:20.029Z,3.58
2018-03-01T21:33:47.924Z,3.50
2018-03-01T21:36:22.821Z,4.03
2018-03-01T21:38:50.752Z,3.67
2018-03-01T21:41:18.663Z,2.60
2018-03-01T21:43:46.589Z,5.87
2018-03-01T21:46:14.532Z,3.95
2018-03-01T21:48:42.447Z,4.40
2018-03-01T21:51:10.793Z,4.05
2018-03-01T21:53:38.709Z,2.97
2018-03-01T21:56:06.633Z,2.92
2018-03-01T21:58:34.557Z,4.53
2018-03-01T22:01:02.452Z,4.22
2018-03-01T22:03:30.371Z,3.53
2018-03-01T22:05:58.330Z,3.12
2018-03-01T22:08:26.237Z,3.00
2018-03-01T22:10:54.145Z,2.78
2018-03-01T22:13:22.077Z,3.00
2018-03-01T22:15:49.990Z,3.50
2018-03-01T22:18:17.892Z,3.87
2018-03-01T22:20:45.792Z,3.55
2018-03-01T22:23:13.708Z,4.25
2018-03-01T22:25:41.605Z,4.20
2018-03-01T22:28:09.512Z,4.20
2018-03-01T22:30:37.413Z,4.00
2018-03-01T22:33:05.326Z,3.70
2018-03-01T22:35:33.323Z,4.32
2018-03-01T22:38:01.232Z,4.03
2018-03-01T22:40:29.145Z,3.67
2018-03-01T22:42:57.069Z,5.15
2018-03-01T22:45:24.980Z,4.50
2018-03-01T22:47:52.889Z,3.30
2018-03-01T22:50:20.817Z,4.47
2018-03-01T22:52:48.783Z,3.53
2018-03-01T22:55:17.363Z,3.42
2018-03-01T22:57:45.265Z,4.37
2018-03-01T23:00:13.201Z,3.70
2018-03-01T23:02:41.112Z,3.20
2018-03-01T23:05:09.004Z,3.95
2018-03-01T23:07:36.926Z,3.67
2018-03-01T23:10:04.856Z,3.47
2018-03-01T23:12:32.756Z,3.70
2018-03-01T23:15:00.677Z,4.00
2018-03-01T23:17:28.597Z,4.03
2018-03-01T23:19:56.492Z,3.03
2018-03-01T23:22:24.823Z,3.83
2018-03-01T23:24:52.756Z,3.58
2018-03-01T23:27:20.649Z,3.67
2018-03-01T23:29:48.558Z,3.85
2018-03-01T23:32:16.476Z,3.08
2018-03-01T23:34:44.390Z,3.62
2018-03-01T23:37:12.300Z,4.00
2018-03-01T23:39:40.216Z,3.53
2018-03-01T23:42:08.118Z,4.05
2018-03-01T23:44:36.037Z,4.12
2018-03-01T23:47:03.977Z,3.55
2018-03-01T23:49:31.888Z,3.87
2018-03-01T23:51:59.792Z,4.47
2018-03-01T23:54:27.700Z,3.12
2018-03-01T23:56:56.094Z,4.22
2018-03-01T23:59:24.004Z,4.43
